Main page
METAR-TAF:

METAR-TAF

Airports :

Pocono Mountains Municipal Airport

Mount Pocono, Pennsylvania, United States

latitude: 41-08-20N, longitude: 075-23-46W, elevation: 1916 ft

Current weather observation

The report was made 39 minutes ago, at 01:53 UTC
Wind 7 mph from the North/Northwest
Temperature 19°F
Humidity 73%
Pressure 30.36 in. Hg
Visibility: 10 miles
Clear sky

METAR: KMPO 080153Z AUTO 33006KT 10SM CLR M07/M11 A3036 RMK AO2 SLP312 T10721111

Time: 21:32 (02:32 UTC)


TAF: missing

Weather observations and forecasts of more than 4000 airports (METAR and TAF reports).

The available stations are represented by yellow and red dots on the map.

Hover mouse over dot to see the name of the station.

Then click to see weather observations and forecasts.

To change the map : click on the green buttons with a black cross to zoom in, on the green button with a dash to zoom out, or on the green arrows for adjacent maps.


METAR-TAF: